Time;durP1;ratioP1;P1;durP2;ratioP2;P2;SDS_P1;SDS_P2;PMS_P1;PMS_P2;Temp;Humidity;BMP_temperature;BMP_pressure;BME280_temperature;BME280_humidity;BME280_pressure;Samples;Min_cycle;Max_cycle;Signal;HPM_P1;HPM_P2
2022/10/21 00:02:23;;;;;;;16.52;11.43;;;;;;;13.58;100.00;100625.72;5015406;28;20576;-69
2022/10/21 00:04:48;;;;;;;24.88;12.63;;;;;;;13.58;100.00;100620.28;5019035;28;20037;-71
2022/10/21 00:07:14;;;;;;;22.58;12.35;;;;;;;13.54;100.00;100617.25;5025953;28;20035;-69
2022/10/21 00:09:40;;;;;;;15.23;12.30;;;;;;;13.51;100.00;100619.63;5028136;28;20106;-71
2022/10/21 00:12:06;;;;;;;18.15;11.63;;;;;;;13.46;100.00;100620.38;5011365;28;20049;-71
2022/10/21 00:14:31;;;;;;;18.67;12.00;;;;;;;13.44;100.00;100622.53;5012314;28;20026;-71
2022/10/21 00:16:57;;;;;;;16.65;11.85;;;;;;;13.38;100.00;100618.09;5025267;28;20512;-71
2022/10/21 00:19:23;;;;;;;18.17;11.73;;;;;;;13.36;100.00;100610.19;5011768;28;20036;-72
2022/10/21 00:21:48;;;;;;;19.30;11.63;;;;;;;13.34;100.00;100609.59;5011984;28;20461;-69
2022/10/21 00:24:13;;;;;;;16.15;11.20;;;;;;;13.33;100.00;100605.22;5022637;28;20044;-69
2022/10/21 00:26:39;;;;;;;20.83;11.35;;;;;;;13.29;100.00;100599.47;5026903;28;20029;-71
2022/10/21 00:29:04;;;;;;;16.92;12.20;;;;;;;13.27;100.00;100589.91;5021417;28;20059;-71
2022/10/21 00:31:29;;;;;;;22.83;11.93;;;;;;;13.29;100.00;100594.03;5026731;28;20117;-69
2022/10/21 00:33:55;;;;;;;18.70;12.18;;;;;;;13.29;100.00;100594.03;5012603;28;20096;-71
2022/10/21 00:36:20;;;;;;;20.15;12.48;;;;;;;13.30;100.00;100595.69;5011255;28;20087;-70
2022/10/21 00:38:47;;;;;;;18.52;12.40;;;;;;;13.27;100.00;100595.34;5009786;28;20017;-70
2022/10/21 00:41:17;;;;;;;24.52;11.98;;;;;;;13.25;100.00;100592.88;5010896;28;20022;-70
2022/10/21 00:43:55;;;;;;;18.60;12.50;;;;;;;13.26;100.00;100599.97;5012247;28;20021;-70
2022/10/21 00:46:33;;;;;;;18.60;12.27;;;;;;;13.23;100.00;100594.22;5012382;28;20533;-68
2022/10/21 00:49:01;;;;;;;17.98;13.00;;;;;;;13.25;100.00;100594.78;5011400;28;20025;-71
2022/10/21 00:51:27;;;;;;;23.05;13.48;;;;;;;13.26;100.00;100599.97;5020759;28;20453;-69
2022/10/21 00:53:52;;;;;;;21.48;13.27;;;;;;;13.28;100.00;100597.81;5026880;28;20037;-70
2022/10/21 00:56:25;;;;;;;21.05;13.82;;;;;;;13.27;100.00;100588.03;5012197;28;20469;-70
2022/10/21 00:58:54;;;;;;;21.23;14.25;;;;;;;13.29;100.00;100593.22;5013467;28;20108;-71
2022/10/21 01:01:19;;;;;;;22.23;13.23;;;;;;;13.29;100.00;100577.72;5028649;28;20056;-70
2022/10/21 01:03:45;;;;;;;18.85;13.82;;;;;;;13.29;100.00;100580.44;5017154;28;20038;-71
2022/10/21 01:06:12;;;;;;;20.92;13.50;;;;;;;13.33;100.00;100577.22;5030592;28;20101;-71
2022/10/21 01:08:38;;;;;;;19.05;13.43;;;;;;;13.32;100.00;100570.97;5029604;28;20079;-69
2022/10/21 01:11:10;;;;;;;20.77;14.25;;;;;;;13.32;100.00;100557.38;5030902;28;20404;-69
2022/10/21 01:14:01;;;;;;;19.83;13.32;;;;;;;13.35;100.00;100564.25;5029449;28;20385;-69
2022/10/21 01:16:44;;;;;;;18.73;12.87;;;;;;;13.37;100.00;100562.09;5029382;28;20014;-69
2022/10/21 01:19:33;;;;;;;18.25;13.00;;;;;;;13.36;100.00;100550.41;5026514;28;20029;-71
2022/10/21 01:22:04;;;;;;;19.92;14.07;;;;;;;13.37;100.00;100557.47;5011147;28;20083;-70
2022/10/21 01:24:57;;;;;;;19.73;13.13;;;;;;;13.38;100.00;100545.53;5024386;28;20108;-71
2022/10/21 01:28:23;;;;;;;20.83;13.50;;;;;;;13.38;100.00;100544.72;5011676;28;20462;-71
2022/10/21 01:31:26;;;;;;;18.80;12.77;;;;;;;13.39;100.00;100543.63;5011269;28;20049;-70
2022/10/21 01:34:21;;;;;;;20.33;12.77;;;;;;;13.39;100.00;100533.59;5045719;28;20053;-70
2022/10/21 01:36:55;;;;;;;20.83;12.02;;;;;;;13.35;100.00;100531.63;5034643;28;20045;-69
2022/10/21 01:39:27;;;;;;;19.02;11.98;;;;;;;13.36;100.00;100527.81;5020039;28;20034;-69
2022/10/21 01:41:59;;;;;;;15.73;11.63;;;;;;;13.31;100.00;100525.84;5015213;28;20373;-71
2022/10/21 01:44:40;;;;;;;18.50;11.77;;;;;;;13.34;100.00;100522.66;5020267;28;20028;-70
2022/10/21 01:47:12;;;;;;;16.10;11.13;;;;;;;13.27;100.00;100514.66;5022776;28;20044;-69
2022/10/21 01:49:44;;;;;;;22.55;11.52;;;;;;;13.24;100.00;100509.72;5015148;28;20029;-71
2022/10/21 01:52:11;;;;;;;16.23;11.20;;;;;;;13.22;100.00;100511.03;5016962;28;20455;-71
2022/10/21 01:54:42;;;;;;;17.15;10.95;;;;;;;13.24;100.00;100509.72;5032887;28;20368;-70
2022/10/21 01:57:10;;;;;;;17.42;11.25;;;;;;;13.25;100.00;100505.09;5033502;28;20009;-69
2022/10/21 01:59:38;;;;;;;13.35;10.68;;;;;;;13.22;100.00;100511.84;5025705;28;20368;-70
2022/10/21 02:02:06;;;;;;;17.30;10.75;;;;;;;13.23;100.00;100497.19;5024367;28;20080;-71
2022/10/21 02:04:35;;;;;;;16.58;10.60;;;;;;;13.22;100.00;100500.97;5017533;28;20036;-71
2022/10/21 02:07:01;;;;;;;18.35;10.57;;;;;;;13.19;100.00;100500.69;5025564;28;20116;-68
2022/10/21 02:09:26;;;;;;;16.77;9.70;;;;;;;13.16;100.00;100496.56;5029777;28;20033;-71
2022/10/21 02:11:56;;;;;;;13.07;9.48;;;;;;;13.10;100.00;100495.69;5014452;28;20045;-70
2022/10/21 02:14:28;;;;;;;15.13;9.65;;;;;;;13.06;100.00;100489.09;5017987;28;20056;-71
2022/10/21 02:16:53;;;;;;;23.48;10.02;;;;;;;13.07;100.00;100484.47;5039269;28;20040;-71
2022/10/21 02:19:19;;;;;;;16.90;9.80;;;;;;;13.03;100.00;100477.91;5017774;28;20091;-71
2022/10/21 02:21:48;;;;;;;18.65;9.77;;;;;;;12.99;100.00;100472.16;5033391;28;20017;-72
2022/10/21 02:24:32;;;;;;;19.30;9.73;;;;;;;12.99;100.00;100476.78;5017795;28;20416;-70
2022/10/21 02:26:57;;;;;;;14.80;10.00;;;;;;;12.90;100.00;100466.31;5013968;28;20496;-70
2022/10/21 02:29:30;;;;;;;20.52;10.25;;;;;;;12.91;100.00;100470.69;5020438;28;20077;-69
2022/10/21 02:32:12;;;;;;;14.32;9.73;;;;;;;12.89;100.00;100478.28;5029921;28;20123;-71
2022/10/21 02:34:59;;;;;;;17.70;9.88;;;;;;;12.90;100.00;100492.66;5022343;28;20041;-69
2022/10/21 02:37:39;;;;;;;14.98;9.90;;;;;;;12.90;100.00;100488.06;5028532;28;20033;-71
2022/10/21 02:40:15;;;;;;;16.45;10.13;;;;;;;12.86;100.00;100478.78;5015973;28;20095;-70
2022/10/21 02:42:48;;;;;;;18.92;10.38;;;;;;;12.88;100.00;100478.53;5031077;28;20067;-70
2022/10/21 02:45:16;;;;;;;16.63;9.88;;;;;;;12.83;100.00;100484.72;5031660;28;20026;-69
2022/10/21 02:47:42;;;;;;;14.77;9.30;;;;;;;12.84;100.00;100480.91;5021543;28;20057;-71
2022/10/21 02:50:08;;;;;;;16.63;9.45;;;;;;;12.83;100.00;100481.16;5013944;28;20056;-70
2022/10/21 02:52:33;;;;;;;15.07;9.77;;;;;;;12.85;100.00;100477.13;5020833;28;20368;-71
2022/10/21 02:54:58;;;;;;;16.67;10.75;;;;;;;12.84;100.00;100467.31;5033855;28;20087;-70
2022/10/21 02:57:24;;;;;;;15.40;9.70;;;;;;;12.85;100.00;100460.03;5032273;28;20083;-71
2022/10/21 02:59:49;;;;;;;11.68;8.93;;;;;;;12.86;100.00;100473.34;5033578;28;20107;-71
2022/10/21 03:02:14;;;;;;;12.90;9.02;;;;;;;12.83;100.00;100460.28;5029714;28;20085;-72
2022/10/21 03:04:40;;;;;;;14.45;9.35;;;;;;;12.83;100.00;100465.69;5031875;28;20025;-70
2022/10/21 03:07:05;;;;;;;13.98;9.15;;;;;;;12.84;100.00;100466.50;5033339;28;20021;-72
2022/10/21 03:09:30;;;;;;;12.70;8.30;;;;;;;12.78;100.00;100471.03;5032049;28;20112;-69
2022/10/21 03:11:56;;;;;;;14.32;8.65;;;;;;;12.76;100.00;100470.47;5031075;28;20053;-71
2022/10/21 03:14:21;;;;;;;17.85;8.93;;;;;;;12.76;100.00;100465.03;5033382;28;20433;-70
2022/10/21 03:16:46;;;;;;;14.52;8.90;;;;;;;12.71;100.00;100457.66;5033306;28;20547;-69
2022/10/21 03:19:15;;;;;;;14.30;9.00;;;;;;;12.71;100.00;100462.25;5033288;28;20037;-70
2022/10/21 03:21:40;;;;;;;16.83;9.95;;;;;;;12.71;100.00;100456.81;5032196;28;20021;-72
2022/10/21 03:24:05;;;;;;;13.98;8.82;;;;;;;12.70;100.00;100460.63;5048191;28;20037;-70
2022/10/21 03:26:31;;;;;;;14.38;9.27;;;;;;;12.67;100.00;100471.97;5031694;28;20021;-70
2022/10/21 03:28:56;;;;;;;14.93;8.43;;;;;;;12.68;100.00;100470.88;5033045;28;20049;-71
2022/10/21 03:31:21;;;;;;;13.10;8.63;;;;;;;12.66;100.00;100473.03;5031358;28;20137;-71
2022/10/21 03:33:46;;;;;;;10.95;8.32;;;;;;;12.68;100.00;100466.28;5031710;28;20032;-69
2022/10/21 03:36:12;;;;;;;13.35;8.48;;;;;;;12.67;100.00;100466.53;5033134;28;20365;-69
2022/10/21 03:38:37;;;;;;;14.45;8.90;;;;;;;12.67;100.00;100463.81;5031510;28;20120;-69
2022/10/21 03:41:02;;;;;;;12.90;8.32;;;;;;;12.67;100.00;100455.69;5032849;28;20441;-70
2022/10/21 03:43:28;;;;;;;14.35;8.50;;;;;;;12.65;100.00;100455.09;5031405;28;20044;-69
2022/10/21 03:45:53;;;;;;;15.65;8.40;;;;;;;12.62;100.00;100459.16;5032918;28;20033;-71
2022/10/21 03:48:18;;;;;;;13.52;8.27;;;;;;;12.63;100.00;100459.97;5031346;28;20060;-70
2022/10/21 03:50:44;;;;;;;13.18;7.88;;;;;;;12.64;100.00;100456.19;5032348;28;20063;-70
2022/10/21 03:53:09;;;;;;;17.95;8.60;;;;;;;12.63;100.00;100455.34;5029969;28;20022;-69
2022/10/21 03:55:34;;;;;;;16.90;7.57;;;;;;;12.61;100.00;100453.97;5030866;28;20013;-70
2022/10/21 03:57:59;;;;;;;14.35;7.82;;;;;;;12.61;100.00;100446.63;5032828;28;20448;-69
2022/10/21 04:00:25;;;;;;;14.45;7.85;;;;;;;12.57;100.00;100454.44;5030432;28;20023;-69
2022/10/21 04:02:50;;;;;;;11.60;7.80;;;;;;;12.57;100.00;100450.91;5025227;28;20049;-72
2022/10/21 04:05:16;;;;;;;15.77;7.68;;;;;;;12.56;100.00;100451.97;5011766;28;20445;-70
2022/10/21 04:07:41;;;;;;;16.65;7.82;;;;;;;12.56;100.00;100460.94;5012798;28;20026;-69
2022/10/21 04:10:08;;;;;;;19.25;7.15;;;;;;;12.53;100.00;100458.72;5012615;28;20025;-69
2022/10/21 04:12:33;;;;;;;19.27;7.80;;;;;;;12.50;100.00;100452.97;5012075;28;20024;-71
2022/10/21 04:14:59;;;;;;;13.32;7.85;;;;;;;12.53;100.00;100460.59;5011316;28;20022;-70
2022/10/21 04:17:24;;;;;;;15.02;7.40;;;;;;;12.54;100.00;100459.53;5011312;28;20084;-70
2022/10/21 04:19:49;;;;;;;12.20;7.35;;;;;;;12.51;100.00;100457.31;5012932;28;20299;-70
2022/10/21 04:22:15;;;;;;;11.75;7.10;;;;;;;12.48;100.00;100460.53;5011258;28;20028;-69
2022/10/21 04:24:40;;;;;;;18.40;7.05;;;;;;;12.46;100.00;100449.94;5011992;28;20451;-69
2022/10/21 04:27:08;;;;;;;7.80;6.65;;;;;;;12.44;100.00;100451.25;5012642;28;20196;-68
2022/10/21 04:29:33;;;;;;;13.50;6.78;;;;;;;12.38;100.00;100453.06;5012148;28;20374;-70
2022/10/21 04:31:59;;;;;;;12.13;6.35;;;;;;;12.38;100.00;100458.50;5012432;28;20029;-71
2022/10/21 04:34:24;;;;;;;12.50;7.00;;;;;;;12.32;100.00;100465.72;5027822;28;20025;-69
2022/10/21 04:36:49;;;;;;;11.90;6.47;;;;;;;12.32;100.00;100462.16;5030717;28;20435;-71
2022/10/21 04:39:15;;;;;;;10.40;6.20;;;;;;;12.28;100.00;100469.19;5030803;28;20044;-68
2022/10/21 04:41:40;;;;;;;8.52;5.97;;;;;;;12.30;100.00;100472.47;5031884;28;20386;-69
2022/10/21 04:44:06;;;;;;;11.80;6.40;;;;;;;12.28;100.00;100469.19;5030961;28;20025;-69
2022/10/21 04:46:31;;;;;;;10.15;5.85;;;;;;;12.28;100.00;100472.69;5047061;28;20021;-69
2022/10/21 04:48:56;;;;;;;8.27;5.15;;;;;;;12.28;100.00;100474.59;5030928;28;20040;-69
2022/10/21 04:51:22;;;;;;;13.25;5.75;;;;;;;12.29;100.00;100470.81;5032056;28;20026;-69
2022/10/21 04:53:47;;;;;;;15.55;5.20;;;;;;;12.30;100.00;100467.84;5030535;28;20030;-69
2022/10/21 04:56:12;;;;;;;15.27;5.68;;;;;;;12.32;100.00;100459.44;5032276;28;20357;-70
2022/10/21 04:58:38;;;;;;;9.50;5.50;;;;;;;12.30;100.00;100451.56;5030724;28;20108;-68
2022/10/21 05:01:03;;;;;;;10.57;5.45;;;;;;;12.29;100.00;100455.38;5029406;28;20091;-71
2022/10/21 05:03:29;;;;;;;10.23;4.97;;;;;;;12.30;100.00;100454.28;5024559;28;20100;-68
2022/10/21 05:05:54;;;;;;;11.75;5.05;;;;;;;12.30;100.00;100451.56;5015802;28;20013;-71
2022/10/21 05:08:20;;;;;;;9.05;4.88;;;;;;;12.32;100.00;100451.31;5016151;28;20026;-71
2022/10/21 05:10:46;;;;;;;10.55;5.15;;;;;;;12.32;100.00;100460.28;5015707;28;20033;-70
2022/10/21 05:13:11;;;;;;;8.63;5.10;;;;;;;12.31;100.00;100452.41;5017265;28;20071;-69
2022/10/21 05:15:37;;;;;;;8.82;4.68;;;;;;;12.31;100.00;100457.81;5034230;28;20453;-70
2022/10/21 05:18:03;;;;;;;8.57;4.70;;;;;;;12.32;100.00;100449.44;5035845;28;20021;-70
2022/10/21 05:20:28;;;;;;;8.82;4.97;;;;;;;12.34;100.00;100455.44;5035285;28;20021;-70
2022/10/21 05:22:53;;;;;;;9.23;4.93;;;;;;;12.35;100.00;100451.66;5034191;28;20071;-68
2022/10/21 05:25:19;;;;;;;9.27;4.60;;;;;;;12.33;100.00;100442.13;5030467;28;20036;-68
2022/10/21 05:27:45;;;;;;;9.18;4.68;;;;;;;12.31;100.00;100439.66;5015484;28;20112;-70
2022/10/21 05:30:12;;;;;;;7.20;4.50;;;;;;;12.33;100.00;100440.22;5014118;28;20049;-70
2022/10/21 05:32:38;;;;;;;11.25;5.78;;;;;;;12.33;100.00;100433.97;5015451;28;20191;-68
2022/10/21 05:35:04;;;;;;;9.70;5.20;;;;;;;12.32;100.00;100435.88;5015308;28;20029;-70
2022/10/21 05:37:30;;;;;;;8.98;5.50;;;;;;;12.31;100.00;100428.00;5026579;28;20026;-72
2022/10/21 05:39:55;;;;;;;11.98;5.03;;;;;;;12.31;100.00;100419.84;5015693;28;20021;-71
2022/10/21 05:42:20;;;;;;;14.05;7.40;;;;;;;12.30;100.00;100418.19;5015545;28;20512;-69
2022/10/21 05:44:47;;;;;;;12.57;9.43;;;;;;;12.25;100.00;100420.84;5015340;28;20033;-69
2022/10/21 05:47:12;;;;;;;14.90;9.52;;;;;;;12.26;100.00;100414.31;5013947;28;20376;-68
2022/10/21 05:49:37;;;;;;;16.35;10.43;;;;;;;12.25;100.00;100420.84;5013509;28;20014;-69
2022/10/21 05:52:03;;;;;;;13.20;8.88;;;;;;;12.23;100.00;100413.75;5015125;28;20030;-71
2022/10/21 05:54:28;;;;;;;13.60;6.93;;;;;;;12.24;100.00;100411.84;5015087;28;20021;-69
2022/10/21 05:56:57;;;;;;;11.85;6.15;;;;;;;12.18;100.00;100412.84;5015100;28;20022;-71
2022/10/21 05:59:23;;;;;;;12.50;5.60;;;;;;;12.19;100.00;100422.63;5015525;28;20026;-71
2022/10/21 06:01:48;;;;;;;10.73;4.95;;;;;;;12.18;100.00;100413.69;5012599;28;20024;-71
2022/10/21 06:04:14;;;;;;;7.82;4.78;;;;;;;12.17;100.00;100417.47;5013562;28;20022;-70
2022/10/21 06:06:39;;;;;;;8.50;4.65;;;;;;;12.15;100.00;100419.59;5014441;28;20109;-72
2022/10/21 06:09:04;;;;;;;13.57;5.10;;;;;;;12.15;100.00;100422.31;5014946;28;20053;-71
2022/10/21 06:11:31;;;;;;;7.38;4.68;;;;;;;12.12;100.00;100420.06;5014445;28;20105;-69
2022/10/21 06:13:56;;;;;;;10.20;4.60;;;;;;;12.14;100.00;100408.97;5014569;28;20029;-71
2022/10/21 06:16:22;;;;;;;9.90;4.20;;;;;;;12.13;100.00;100413.59;5013295;28;20018;-69
2022/10/21 06:18:47;;;;;;;7.05;4.38;;;;;;;12.14;100.00;100415.25;5013253;28;20029;-68
2022/10/21 06:21:13;;;;;;;11.57;4.68;;;;;;;12.10;100.00;100408.66;5014372;28;20029;-71
2022/10/21 06:23:38;;;;;;;8.48;4.40;;;;;;;12.13;100.00;100402.72;5012943;28;20024;-69
2022/10/21 06:26:12;;;;;;;9.30;4.50;;;;;;;12.09;100.00;100403.47;5014308;28;20052;-71
2022/10/21 06:28:40;;;;;;;9.32;4.80;;;;;;;12.08;100.00;100407.25;5014177;28;20096;-73
2022/10/21 06:31:07;;;;;;;14.73;4.68;;;;;;;12.02;100.00;100409.88;5014416;28;20446;-72
2022/10/21 06:33:32;;;;;;;13.80;4.75;;;;;;;12.06;100.00;100407.50;5014345;28;20025;-69
2022/10/21 06:35:58;;;;;;;10.43;4.47;;;;;;;12.09;100.00;100404.28;5014518;28;20022;-70
2022/10/21 06:38:24;;;;;;;8.73;4.30;;;;;;;12.09;100.00;100423.28;5014480;28;20041;-70
2022/10/21 06:40:50;;;;;;;11.82;4.85;;;;;;;12.08;100.00;100421.66;5013998;28;20066;-69
2022/10/21 06:43:16;;;;;;;9.85;4.10;;;;;;;12.08;100.00;100434.38;5016106;28;20065;-71
2022/10/21 06:45:41;;;;;;;8.48;4.57;;;;;;;12.11;100.00;100437.44;5013613;28;20416;-71
2022/10/21 06:48:06;;;;;;;9.10;4.88;;;;;;;12.14;100.00;100439.66;5014345;28;20539;-70
2022/10/21 06:50:32;;;;;;;9.25;4.82;;;;;;;12.23;100.00;100434.66;5014171;28;20026;-70
2022/10/21 06:52:57;;;;;;;13.60;5.22;;;;;;;12.23;100.00;100446.31;5023882;28;20040;-72
2022/10/21 06:55:23;;;;;;;9.93;4.75;;;;;;;12.25;100.00;100442.53;5020422;28;20065;-72
2022/10/21 06:57:48;;;;;;;14.52;4.82;;;;;;;12.29;100.00;100449.94;5002374;28;20052;-72
2022/10/21 07:00:14;;;;;;;12.07;4.65;;;;;;;12.32;100.00;100459.44;5029344;28;20025;-72
2022/10/21 07:02:41;;;;;;;10.30;4.22;;;;;;;12.37;100.00;100462.28;5029550;28;20028;-73
2022/10/21 07:05:06;;;;;;;12.82;4.55;;;;;;;12.39;100.00;100468.25;5033191;28;20043;-72
2022/10/21 07:07:32;;;;;;;11.85;4.22;;;;;;;12.47;100.00;100473.28;5032609;28;20029;-73
2022/10/21 07:09:57;;;;;;;11.18;4.15;;;;;;;12.48;100.00;100472.22;5032576;28;20112;-73
2022/10/21 07:12:26;;;;;;;11.00;4.28;;;;;;;12.54;100.00;100479.34;5026152;28;20442;-72
2022/10/21 07:14:53;;;;;;;8.35;4.03;;;;;;;12.58;100.00;100485.13;5012867;28;20466;-72
2022/10/21 07:17:18;;;;;;;9.23;3.67;;;;;;;12.61;100.00;100486.53;5013234;28;20022;-72
2022/10/21 07:19:44;;;;;;;11.85;4.05;;;;;;;12.63;100.00;100490.63;5026463;28;20048;-72
2022/10/21 07:22:09;;;;;;;8.50;4.15;;;;;;;12.66;100.00;100487.41;5031706;28;20022;-71
2022/10/21 07:24:35;;;;;;;8.60;3.83;;;;;;;12.68;100.00;100484.44;5033021;28;20112;-71
2022/10/21 07:27:00;;;;;;;12.55;4.18;;;;;;;12.68;100.00;100488.00;5032155;28;20116;-70
2022/10/21 07:29:26;;;;;;;12.27;4.78;;;;;;;12.74;100.00;100478.03;5032319;28;20551;-70
2022/10/21 07:31:51;;;;;;;11.77;4.40;;;;;;;12.75;100.00;100476.97;5031334;28;20087;-70
2022/10/21 07:34:16;;;;;;;9.80;4.15;;;;;;;12.77;100.00;100489.22;5032650;28;20025;-73
2022/10/21 07:36:51;;;;;;;13.23;4.00;;;;;;;12.79;100.00;100486.28;5032491;28;20029;-71
2022/10/21 07:39:20;;;;;;;12.18;4.40;;;;;;;12.82;100.00;100480.34;5032183;28;20033;-71
2022/10/21 07:41:51;;;;;;;14.05;4.50;;;;;;;12.86;100.00;100495.06;5028611;28;20029;-71
2022/10/21 07:44:18;;;;;;;9.73;4.10;;;;;;;12.90;100.00;100501.63;5021266;28;20041;-73
2022/10/21 07:46:43;;;;;;;11.50;4.05;;;;;;;12.91;100.00;100492.41;5029625;28;20123;-71
2022/10/21 07:49:10;;;;;;;9.05;4.22;;;;;;;12.94;100.00;100499.25;5017928;28;20108;-73
2022/10/21 07:51:37;;;;;;;15.32;4.40;;;;;;;12.96;100.00;100504.44;5032005;28;20043;-72
2022/10/21 07:54:02;;;;;;;13.13;4.30;;;;;;;12.99;100.00;100502.03;5031054;28;20116;-71
2022/10/21 07:56:35;;;;;;;13.07;4.28;;;;;;;13.02;100.00;100506.97;5021807;28;20120;-72
2022/10/21 07:59:01;;;;;;;12.90;4.57;;;;;;;13.04;100.00;100504.00;5032395;28;20108;-72
2022/10/21 08:01:26;;;;;;;17.05;4.68;;;;;;;13.07;100.00;100507.06;5029636;28;20060;-73
2022/10/21 08:03:53;;;;;;;11.27;4.47;;;;;;;13.08;100.00;100505.16;5015452;28;20068;-72
2022/10/21 08:06:20;;;;;;;10.13;5.10;;;;;;;13.12;100.00;100511.72;5012343;28;20030;-73
2022/10/21 08:08:45;;;;;;;10.20;5.03;;;;;;;13.12;100.00;100501.69;5011990;28;20033;-74
2022/10/21 08:11:11;;;;;;;10.65;4.53;;;;;;;13.12;100.00;100495.44;5024492;28;20385;-73
2022/10/21 08:13:39;;;;;;;15.77;5.18;;;;;;;13.13;100.00;100499.78;5012462;28;20365;-72
2022/10/21 08:16:05;;;;;;;12.00;4.95;;;;;;;13.12;100.00;100490.00;5011085;28;20030;-73
2022/10/21 08:18:30;;;;;;;7.78;4.40;;;;;;;13.15;100.00;100496.81;5047907;28;20075;-76
2022/10/21 08:20:56;;;;;;;11.13;4.70;;;;;;;13.16;100.00;100501.19;5021328;28;20061;-74
2022/10/21 08:23:22;;;;;;;15.13;5.00;;;;;;;13.15;100.00;100489.50;5030650;28;20029;-72
2022/10/21 08:25:53;;;;;;;7.85;4.43;;;;;;;13.15;100.00;100504.97;5032308;28;20033;-71
2022/10/21 08:28:20;;;;;;;10.02;4.68;;;;;;;13.17;100.00;100522.66;5032644;28;20021;-72
2022/10/21 08:30:45;;;;;;;8.23;4.95;;;;;;;13.16;100.00;100522.91;5029311;28;20064;-70
2022/10/21 08:33:12;;;;;;;13.35;5.10;;;;;;;13.16;100.00;100512.84;5030715;28;20469;-70
2022/10/21 08:35:38;;;;;;;8.63;4.95;;;;;;;13.14;100.00;100509.56;5032164;28;20449;-71
2022/10/21 08:38:04;;;;;;;12.23;4.72;;;;;;;13.14;100.00;100515.00;5034771;28;20047;-71
2022/10/21 08:40:37;;;;;;;10.23;4.88;;;;;;;13.18;100.00;100515.31;5034757;28;20460;-74
2022/10/21 08:43:08;;;;;;;15.70;5.07;;;;;;;13.19;100.00;100530.56;5036353;28;20104;-72
2022/10/21 08:45:54;;;;;;;12.87;5.70;;;;;;;13.23;100.00;100539.88;5035978;28;20368;-74
2022/10/21 08:48:26;;;;;;;11.73;4.88;;;;;;;13.21;100.00;100534.69;5036003;28;20748;-72
2022/10/21 08:50:56;;;;;;;;;;;;;;;13.30;100.00;100525.03;5034393;28;20407;-72
2022/10/21 08:53:44;;;;;;;8.60;5.38;;;;;;;13.23;100.00;100518.94;5036321;28;20363;-72
2022/10/21 08:56:13;;;;;;;10.98;5.05;;;;;;;13.26;100.00;100539.38;5036049;28;20018;-73
2022/10/21 08:58:39;;;;;;;13.80;4.88;;;;;;;13.27;100.00;100549.97;5036204;28;20449;-76
2022/10/21 09:01:19;;;;;;;13.07;5.38;;;;;;;13.27;100.00;100544.53;5021005;28;20026;-76
2022/10/21 09:03:46;;;;;;;10.13;4.85;;;;;;;13.29;100.00;100538.84;5032907;28;20060;-76
2022/10/21 09:06:20;;;;;;;10.10;4.93;;;;;;;13.34;100.00;100554.44;5036031;28;20357;-76
2022/10/21 09:09:06;;;;;;;15.70;5.22;;;;;;;13.34;100.00;100541.66;5035488;28;20534;-77
2022/10/21 09:12:01;;;;;;;9.80;4.97;;;;;;;13.35;100.00;100548.75;5030290;28;20038;-77
2022/10/21 09:14:59;;;;;;;11.90;4.95;;;;;;;13.36;100.00;100533.25;5015542;28;20038;-77
2022/10/21 09:17:56;;;;;;;12.68;3.40;;;;;;;13.43;100.00;100542.06;5015749;28;20028;-78
2022/10/21 09:20:49;;;;;;;9.60;2.90;;;;;;;13.50;100.00;100517.41;5015550;28;20025;-77
2022/10/21 09:23:47;;;;;;;8.27;2.75;;;;;;;13.60;100.00;100531.97;5014596;28;20062;-78
2022/10/21 09:26:35;;;;;;;4.65;1.98;;;;;;;13.77;100.00;100525.63;5014516;28;20037;-74
2022/10/21 09:29:29;;;;;;;4.32;2.00;;;;;;;13.98;100.00;100529.41;5015392;28;20046;-75
2022/10/21 09:32:01;;;;;;;7.00;2.33;;;;;;;14.07;100.00;100529.75;5017946;28;20021;-75
2022/10/21 09:34:39;;;;;;;5.93;1.95;;;;;;;14.14;100.00;100533.91;5015615;28;20061;-74
2022/10/21 09:37:13;;;;;;;3.90;1.75;;;;;;;14.21;100.00;100530.19;5015704;28;20457;-73
2022/10/21 09:39:44;;;;;;;5.90;2.10;;;;;;;14.25;100.00;100534.00;5015341;28;20026;-74
2022/10/21 09:42:11;;;;;;;7.63;2.22;;;;;;;14.25;100.00;100526.69;5015787;28;20030;-74
2022/10/21 09:44:37;;;;;;;9.13;2.20;;;;;;;14.29;100.00;100535.16;5015591;28;20445;-73
2022/10/21 09:47:16;;;;;;;7.20;2.60;;;;;;;14.30;100.00;100523.19;5015335;28;20025;-73
2022/10/21 09:49:47;;;;;;;9.73;2.75;;;;;;;14.30;100.00;100532.16;5014706;28;20032;-74
2022/10/21 09:52:16;;;;;;;5.75;2.60;;;;;;;14.31;100.00;100527.53;5030452;28;20121;-74
2022/10/21 09:54:41;;;;;;;7.53;2.63;;;;;;;14.35;100.00;100529.50;5015145;28;20104;-74
2022/10/21 09:57:16;;;;;;;7.13;3.03;;;;;;;14.36;100.00;100536.59;5014016;28;20116;-73
2022/10/21 09:59:57;;;;;;;10.60;3.03;;;;;;;14.39;100.00;100539.84;5015023;28;20021;-74
2022/10/21 10:02:36;;;;;;;9.30;3.03;;;;;;;14.42;100.00;100540.19;5012756;28;20037;-74
2022/10/21 10:05:21;;;;;;;10.38;3.20;;;;;;;14.46;100.00;100537.75;5013429;28;20117;-73
2022/10/21 10:07:46;;;;;;;10.52;3.38;;;;;;;14.48;100.00;100543.78;5014412;28;20033;-73
2022/10/21 10:10:32;;;;;;;11.65;3.55;;;;;;;14.50;100.00;100541.59;5013402;28;20456;-74
2022/10/21 10:12:59;;;;;;;10.15;3.90;;;;;;;14.57;100.00;100539.50;5014595;28;20041;-72
2022/10/21 10:15:32;;;;;;;6.10;3.42;;;;;;;14.60;100.00;100538.97;5014730;28;20022;-73
2022/10/21 10:17:59;;;;;;;8.68;3.35;;;;;;;14.63;100.00;100545.81;5014394;28;20481;-74
2022/10/21 10:20:24;;;;;;;5.90;3.50;;;;;;;14.64;100.00;100553.72;5014528;28;20033;-72
2022/10/21 10:22:58;;;;;;;10.18;3.60;;;;;;;14.70;100.00;100555.44;5014621;28;20024;-73
2022/10/21 10:25:31;;;;;;;11.15;4.47;;;;;;;14.80;100.00;100556.59;5014823;28;20026;-74
2022/10/21 10:28:23;;;;;;;12.75;4.57;;;;;;;14.81;100.00;100553.63;5014169;28;20045;-72
2022/10/21 10:30:53;;;;;;;12.07;4.70;;;;;;;14.86;100.00;100547.38;5013953;28;20038;-73
2022/10/21 10:33:22;;;;;;;11.27;5.15;;;;;;;14.91;100.00;100547.41;5014656;28;20030;-73
2022/10/21 10:35:51;;;;;;;13.13;6.05;;;;;;;14.96;100.00;100549.34;5014361;28;20051;-74
2022/10/21 10:38:41;;;;;;;12.65;6.07;;;;;;;15.01;100.00;100550.22;5014540;28;20033;-72
2022/10/21 10:41:14;;;;;;;10.93;5.75;;;;;;;15.07;100.00;100549.16;5013809;28;20032;-72
2022/10/21 10:43:53;;;;;;;15.98;6.28;;;;;;;15.12;100.00;100551.09;5014426;28;20044;-73
2022/10/21 10:46:31;;;;;;;17.00;5.57;;;;;;;15.12;100.00;100553.81;5014312;28;20026;-73
2022/10/21 10:49:04;;;;;;;14.65;5.53;;;;;;;15.18;100.00;100554.69;5012815;28;20033;-70
2022/10/21 10:51:34;;;;;;;15.25;5.45;;;;;;;15.19;100.00;100548.97;5029465;28;20446;-71
2022/10/21 10:54:05;;;;;;;14.23;5.65;;;;;;;15.25;100.00;100563.47;5029255;28;20029;-74
2022/10/21 10:56:33;;;;;;;10.15;5.15;;;;;;;15.30;100.00;100552.56;5033753;28;20067;-73
2022/10/21 10:59:05;;;;;;;10.20;5.32;;;;;;;15.36;100.00;100551.50;5031779;28;20411;-73
2022/10/21 11:01:38;;;;;;;8.73;5.13;;;;;;;15.47;100.00;100546.94;5010995;28;20048;-73
2022/10/21 11:04:15;;;;;;;8.25;4.88;;;;;;;15.55;100.00;100540.13;5033294;28;20104;-73
2022/10/21 11:06:48;;;;;;;10.70;5.68;;;;;;;15.58;100.00;100539.63;5033731;28;20075;-73
2022/10/21 11:09:14;;;;;;;13.63;6.47;;;;;;;15.59;100.00;100530.34;5032409;28;20025;-73
2022/10/21 11:11:44;;;;;;;14.50;5.47;;;;;;;15.60;100.00;100532.81;5033625;28;20025;-73
2022/10/21 11:14:12;;;;;;;13.23;6.00;;;;;;;15.63;100.00;100526.00;5032498;28;20029;-70
2022/10/21 11:16:47;;;;;;;10.68;6.10;;;;;;;15.65;100.00;100523.81;5033605;28;20055;-70
2022/10/21 11:19:25;;;;;;;10.15;5.28;;;;;;;15.71;100.00;100521.94;5032171;28;20026;-72
2022/10/21 11:22:04;;;;;;;9.93;5.20;;;;;;;15.74;100.00;100519.50;5125836;27;20564;-71